sensor_id;sensor_type;location;lat;lon;timestamp;P1;durP1;ratioP1;P2;durP2;ratioP2
34765;SDS011;20984;43.508;1.504;2022-09-09T00:02:01;6.32;;;2.05;;
34765;SDS011;20984;43.508;1.504;2022-09-09T00:05:32;7.38;;;2.25;;
34765;SDS011;20984;43.508;1.504;2022-09-09T00:07:51;5.80;;;2.50;;
34765;SDS011;20984;43.508;1.504;2022-09-09T00:15:37;10.00;;;2.58;;
34765;SDS011;20984;43.508;1.504;2022-09-09T00:18:27;6.00;;;2.50;;
34765;SDS011;20984;43.508;1.504;2022-09-09T00:24:04;4.65;;;2.30;;
34765;SDS011;20984;43.508;1.504;2022-09-09T00:26:40;5.65;;;2.40;;
34765;SDS011;20984;43.508;1.504;2022-09-09T00:31:48;8.25;;;2.30;;
34765;SDS011;20984;43.508;1.504;2022-09-09T00:34:21;8.15;;;2.63;;
34765;SDS011;20984;43.508;1.504;2022-09-09T00:36:52;3.97;;;2.10;;
34765;SDS011;20984;43.508;1.504;2022-09-09T00:39:27;5.63;;;2.42;;
34765;SDS011;20984;43.508;1.504;2022-09-09T00:47:46;7.57;;;2.10;;
34765;SDS011;20984;43.508;1.504;2022-09-09T00:53:01;6.65;;;2.35;;
34765;SDS011;20984;43.508;1.504;2022-09-09T00:58:13;3.63;;;2.13;;
34765;SDS011;20984;43.508;1.504;2022-09-09T01:00:41;8.98;;;2.50;;
34765;SDS011;20984;43.508;1.504;2022-09-09T01:11:49;5.18;;;1.90;;
34765;SDS011;20984;43.508;1.504;2022-09-09T01:19:57;7.95;;;2.88;;
34765;SDS011;20984;43.508;1.504;2022-09-09T01:22:44;7.63;;;2.53;;
34765;SDS011;20984;43.508;1.504;2022-09-09T01:28:29;7.80;;;2.30;;
34765;SDS011;20984;43.508;1.504;2022-09-09T01:30:56;7.90;;;2.40;;
34765;SDS011;20984;43.508;1.504;2022-09-09T01:33:23;2.45;;;1.80;;
34765;SDS011;20984;43.508;1.504;2022-09-09T01:35:54;4.85;;;1.98;;
34765;SDS011;20984;43.508;1.504;2022-09-09T01:38:47;7.70;;;2.42;;
34765;SDS011;20984;43.508;1.504;2022-09-09T01:41:13;4.03;;;1.50;;
34765;SDS011;20984;43.508;1.504;2022-09-09T01:43:39;4.97;;;1.70;;
34765;SDS011;20984;43.508;1.504;2022-09-09T01:46:05;4.50;;;1.70;;
34765;SDS011;20984;43.508;1.504;2022-09-09T01:48:31;7.00;;;2.30;;
34765;SDS011;20984;43.508;1.504;2022-09-09T01:50:58;9.00;;;2.30;;
34765;SDS011;20984;43.508;1.504;2022-09-09T01:53:24;8.70;;;2.63;;
34765;SDS011;20984;43.508;1.504;2022-09-09T01:59:24;5.25;;;1.83;;
34765;SDS011;20984;43.508;1.504;2022-09-09T02:01:40;6.47;;;2.40;;
34765;SDS011;20984;43.508;1.504;2022-09-09T02:04:17;10.07;;;1.88;;
34765;SDS011;20984;43.508;1.504;2022-09-09T02:07:03;5.18;;;2.25;;
34765;SDS011;20984;43.508;1.504;2022-09-09T02:09:38;7.80;;;2.15;;
34765;SDS011;20984;43.508;1.504;2022-09-09T02:12:11;5.50;;;1.85;;
34765;SDS011;20984;43.508;1.504;2022-09-09T02:14:45;12.63;;;2.42;;
34765;SDS011;20984;43.508;1.504;2022-09-09T02:17:16;7.85;;;2.45;;
34765;SDS011;20984;43.508;1.504;2022-09-09T02:19:52;6.28;;;3.00;;
34765;SDS011;20984;43.508;1.504;2022-09-09T02:22:31;10.00;;;2.95;;
34765;SDS011;20984;43.508;1.504;2022-09-09T02:25:00;5.73;;;2.80;;
34765;SDS011;20984;43.508;1.504;2022-09-09T02:27:30;7.28;;;2.58;;
34765;SDS011;20984;43.508;1.504;2022-09-09T02:29:56;10.68;;;2.53;;
34765;SDS011;20984;43.508;1.504;2022-09-09T02:32:25;10.63;;;3.05;;
34765;SDS011;20984;43.508;1.504;2022-09-09T02:34:56;5.97;;;2.55;;
34765;SDS011;20984;43.508;1.504;2022-09-09T02:37:27;7.25;;;2.83;;
34765;SDS011;20984;43.508;1.504;2022-09-09T02:39:58;5.55;;;2.42;;
34765;SDS011;20984;43.508;1.504;2022-09-09T02:42:24;5.60;;;2.20;;
34765;SDS011;20984;43.508;1.504;2022-09-09T02:44:50;8.13;;;2.60;;
34765;SDS011;20984;43.508;1.504;2022-09-09T02:47:27;4.60;;;2.28;;
34765;SDS011;20984;43.508;1.504;2022-09-09T02:52:44;11.95;;;1.88;;
34765;SDS011;20984;43.508;1.504;2022-09-09T02:58:25;5.28;;;2.03;;
34765;SDS011;20984;43.508;1.504;2022-09-09T03:00:53;11.70;;;2.40;;
34765;SDS011;20984;43.508;1.504;2022-09-09T03:03:22;4.20;;;2.00;;
34765;SDS011;20984;43.508;1.504;2022-09-09T03:05:48;7.70;;;2.63;;
34765;SDS011;20984;43.508;1.504;2022-09-09T03:08:15;8.55;;;2.55;;
34765;SDS011;20984;43.508;1.504;2022-09-09T03:10:41;6.35;;;2.25;;
34765;SDS011;20984;43.508;1.504;2022-09-09T03:13:07;4.75;;;1.90;;
34765;SDS011;20984;43.508;1.504;2022-09-09T03:15:33;4.15;;;2.05;;
34765;SDS011;20984;43.508;1.504;2022-09-09T03:17:59;8.25;;;2.30;;
34765;SDS011;20984;43.508;1.504;2022-09-09T03:20:26;6.97;;;2.83;;
34765;SDS011;20984;43.508;1.504;2022-09-09T03:22:54;5.18;;;2.20;;
34765;SDS011;20984;43.508;1.504;2022-09-09T03:25:21;5.40;;;1.80;;
34765;SDS011;20984;43.508;1.504;2022-09-09T03:27:50;12.63;;;2.67;;
34765;SDS011;20984;43.508;1.504;2022-09-09T03:30:20;4.47;;;2.00;;
34765;SDS011;20984;43.508;1.504;2022-09-09T03:35:15;5.28;;;1.90;;
34765;SDS011;20984;43.508;1.504;2022-09-09T03:37:42;7.75;;;2.70;;
34765;SDS011;20984;43.508;1.504;2022-09-09T03:40:08;6.88;;;2.70;;
34765;SDS011;20984;43.508;1.504;2022-09-09T03:42:37;6.15;;;1.90;;
34765;SDS011;20984;43.508;1.504;2022-09-09T03:45:05;6.50;;;2.25;;
34765;SDS011;20984;43.508;1.504;2022-09-09T03:47:34;6.13;;;2.03;;
34765;SDS011;20984;43.508;1.504;2022-09-09T03:50:00;5.05;;;2.33;;
34765;SDS011;20984;43.508;1.504;2022-09-09T03:52:29;8.73;;;1.95;;
34765;SDS011;20984;43.508;1.504;2022-09-09T03:54:55;5.95;;;2.13;;
34765;SDS011;20984;43.508;1.504;2022-09-09T03:57:21;4.90;;;2.20;;
34765;SDS011;20984;43.508;1.504;2022-09-09T03:59:47;4.30;;;1.88;;
34765;SDS011;20984;43.508;1.504;2022-09-09T04:02:13;3.75;;;1.98;;
34765;SDS011;20984;43.508;1.504;2022-09-09T04:04:40;4.57;;;1.90;;
34765;SDS011;20984;43.508;1.504;2022-09-09T04:07:06;5.55;;;2.08;;
34765;SDS011;20984;43.508;1.504;2022-09-09T04:09:32;8.43;;;2.17;;
34765;SDS011;20984;43.508;1.504;2022-09-09T04:12:00;6.30;;;2.33;;
34765;SDS011;20984;43.508;1.504;2022-09-09T04:14:26;7.03;;;1.98;;
34765;SDS011;20984;43.508;1.504;2022-09-09T04:16:53;8.80;;;2.17;;
34765;SDS011;20984;43.508;1.504;2022-09-09T04:19:21;3.53;;;2.17;;
34765;SDS011;20984;43.508;1.504;2022-09-09T04:21:46;5.47;;;1.77;;
34765;SDS011;20984;43.508;1.504;2022-09-09T04:24:16;5.70;;;1.75;;
34765;SDS011;20984;43.508;1.504;2022-09-09T04:26:42;7.43;;;2.53;;
34765;SDS011;20984;43.508;1.504;2022-09-09T04:29:08;6.28;;;1.80;;
34765;SDS011;20984;43.508;1.504;2022-09-09T04:31:34;5.75;;;2.40;;
34765;SDS011;20984;43.508;1.504;2022-09-09T04:34:00;6.35;;;1.75;;
34765;SDS011;20984;43.508;1.504;2022-09-09T04:36:31;3.63;;;1.73;;
34765;SDS011;20984;43.508;1.504;2022-09-09T04:38:58;6.55;;;2.05;;
34765;SDS011;20984;43.508;1.504;2022-09-09T04:41:24;7.22;;;1.90;;
34765;SDS011;20984;43.508;1.504;2022-09-09T04:43:50;5.03;;;2.00;;
34765;SDS011;20984;43.508;1.504;2022-09-09T04:46:17;6.63;;;2.13;;
34765;SDS011;20984;43.508;1.504;2022-09-09T04:48:43;5.80;;;2.10;;
34765;SDS011;20984;43.508;1.504;2022-09-09T04:51:10;3.85;;;1.80;;
34765;SDS011;20984;43.508;1.504;2022-09-09T04:53:38;8.45;;;1.98;;
34765;SDS011;20984;43.508;1.504;2022-09-09T04:56:06;7.90;;;2.25;;
34765;SDS011;20984;43.508;1.504;2022-09-09T04:58:36;6.78;;;2.58;;
34765;SDS011;20984;43.508;1.504;2022-09-09T05:01:13;7.47;;;2.30;;
34765;SDS011;20984;43.508;1.504;2022-09-09T05:03:42;5.35;;;2.45;;
34765;SDS011;20984;43.508;1.504;2022-09-09T05:06:11;6.40;;;2.38;;
34765;SDS011;20984;43.508;1.504;2022-09-09T05:08:39;6.22;;;2.00;;
34765;SDS011;20984;43.508;1.504;2022-09-09T05:11:17;4.03;;;2.35;;
34765;SDS011;20984;43.508;1.504;2022-09-09T05:13:44;3.67;;;2.10;;
34765;SDS011;20984;43.508;1.504;2022-09-09T05:16:10;8.45;;;2.10;;
34765;SDS011;20984;43.508;1.504;2022-09-09T05:18:40;5.53;;;2.42;;
34765;SDS011;20984;43.508;1.504;2022-09-09T05:21:10;7.80;;;1.83;;
34765;SDS011;20984;43.508;1.504;2022-09-09T05:23:36;8.70;;;2.60;;
34765;SDS011;20984;43.508;1.504;2022-09-09T05:26:03;5.50;;;2.20;;
34765;SDS011;20984;43.508;1.504;2022-09-09T05:28:30;3.65;;;2.10;;
34765;SDS011;20984;43.508;1.504;2022-09-09T05:31:00;5.57;;;2.60;;
34765;SDS011;20984;43.508;1.504;2022-09-09T05:33:33;7.13;;;2.50;;
34765;SDS011;20984;43.508;1.504;2022-09-09T05:36:04;5.18;;;2.67;;
34765;SDS011;20984;43.508;1.504;2022-09-09T05:38:33;4.35;;;2.20;;
34765;SDS011;20984;43.508;1.504;2022-09-09T05:41:00;9.02;;;2.63;;
34765;SDS011;20984;43.508;1.504;2022-09-09T05:43:27;5.50;;;2.28;;
34765;SDS011;20984;43.508;1.504;2022-09-09T05:46:04;6.43;;;2.75;;
34765;SDS011;20984;43.508;1.504;2022-09-09T05:48:37;9.52;;;2.65;;
34765;SDS011;20984;43.508;1.504;2022-09-09T05:51:04;5.00;;;2.38;;
34765;SDS011;20984;43.508;1.504;2022-09-09T05:53:33;4.07;;;2.38;;
34765;SDS011;20984;43.508;1.504;2022-09-09T05:56:00;5.47;;;2.13;;
34765;SDS011;20984;43.508;1.504;2022-09-09T05:58:29;3.35;;;2.22;;
34765;SDS011;20984;43.508;1.504;2022-09-09T06:01:04;6.43;;;2.53;;
34765;SDS011;20984;43.508;1.504;2022-09-09T06:03:33;3.78;;;2.10;;
34765;SDS011;20984;43.508;1.504;2022-09-09T06:06:00;8.20;;;2.88;;
34765;SDS011;20984;43.508;1.504;2022-09-09T06:08:30;6.15;;;2.35;;
34765;SDS011;20984;43.508;1.504;2022-09-09T06:11:00;6.50;;;3.30;;
34765;SDS011;20984;43.508;1.504;2022-09-09T06:13:30;4.55;;;2.63;;
34765;SDS011;20984;43.508;1.504;2022-09-09T06:15:56;6.57;;;3.38;;
34765;SDS011;20984;43.508;1.504;2022-09-09T06:18:23;6.25;;;3.30;;
34765;SDS011;20984;43.508;1.504;2022-09-09T06:20:57;4.55;;;2.40;;
34765;SDS011;20984;43.508;1.504;2022-09-09T06:23:30;8.95;;;2.85;;
34765;SDS011;20984;43.508;1.504;2022-09-09T06:26:06;6.38;;;3.10;;
34765;SDS011;20984;43.508;1.504;2022-09-09T06:28:34;7.78;;;2.45;;
34765;SDS011;20984;43.508;1.504;2022-09-09T06:31:02;6.43;;;2.33;;
34765;SDS011;20984;43.508;1.504;2022-09-09T06:33:33;3.78;;;2.40;;
34765;SDS011;20984;43.508;1.504;2022-09-09T06:36:00;4.35;;;2.67;;
34765;SDS011;20984;43.508;1.504;2022-09-09T06:38:27;4.28;;;2.40;;
34765;SDS011;20984;43.508;1.504;2022-09-09T06:40:53;6.35;;;2.40;;
34765;SDS011;20984;43.508;1.504;2022-09-09T06:43:21;5.93;;;3.33;;
34765;SDS011;20984;43.508;1.504;2022-09-09T06:45:58;4.22;;;2.70;;
34765;SDS011;20984;43.508;1.504;2022-09-09T06:48:26;7.05;;;3.08;;
34765;SDS011;20984;43.508;1.504;2022-09-09T06:53:31;5.00;;;2.30;;
34765;SDS011;20984;43.508;1.504;2022-09-09T06:56:01;11.10;;;3.10;;
34765;SDS011;20984;43.508;1.504;2022-09-09T06:58:48;9.23;;;2.95;;
34765;SDS011;20984;43.508;1.504;2022-09-09T07:01:17;5.97;;;2.72;;
34765;SDS011;20984;43.508;1.504;2022-09-09T07:03:46;7.68;;;2.63;;
34765;SDS011;20984;43.508;1.504;2022-09-09T07:06:16;10.02;;;2.28;;
34765;SDS011;20984;43.508;1.504;2022-09-09T07:08:53;6.90;;;2.88;;
34765;SDS011;20984;43.508;1.504;2022-09-09T07:11:21;5.43;;;3.13;;
34765;SDS011;20984;43.508;1.504;2022-09-09T07:13:48;4.43;;;2.67;;
34765;SDS011;20984;43.508;1.504;2022-09-09T07:16:15;7.78;;;2.65;;
34765;SDS011;20984;43.508;1.504;2022-09-09T07:18:42;7.68;;;3.15;;
34765;SDS011;20984;43.508;1.504;2022-09-09T07:21:09;6.93;;;2.90;;
34765;SDS011;20984;43.508;1.504;2022-09-09T07:23:37;6.43;;;2.25;;
34765;SDS011;20984;43.508;1.504;2022-09-09T07:26:14;8.88;;;2.78;;
34765;SDS011;20984;43.508;1.504;2022-09-09T07:28:41;5.63;;;2.40;;
34765;SDS011;20984;43.508;1.504;2022-09-09T07:31:13;3.88;;;2.70;;
34765;SDS011;20984;43.508;1.504;2022-09-09T07:33:43;3.70;;;2.10;;
34765;SDS011;20984;43.508;1.504;2022-09-09T07:36:12;5.30;;;2.63;;
34765;SDS011;20984;43.508;1.504;2022-09-09T07:38:40;7.68;;;2.67;;
34765;SDS011;20984;43.508;1.504;2022-09-09T07:41:11;7.68;;;2.80;;
34765;SDS011;20984;43.508;1.504;2022-09-09T07:43:44;9.48;;;2.88;;
34765;SDS011;20984;43.508;1.504;2022-09-09T07:46:11;8.43;;;2.75;;
34765;SDS011;20984;43.508;1.504;2022-09-09T07:48:39;3.95;;;2.30;;
34765;SDS011;20984;43.508;1.504;2022-09-09T07:51:13;9.45;;;2.50;;
34765;SDS011;20984;43.508;1.504;2022-09-09T07:53:45;4.45;;;2.58;;
34765;SDS011;20984;43.508;1.504;2022-09-09T07:56:15;9.00;;;2.65;;
34765;SDS011;20984;43.508;1.504;2022-09-09T07:58:44;5.35;;;3.08;;
34765;SDS011;20984;43.508;1.504;2022-09-09T08:01:17;7.63;;;2.65;;
34765;SDS011;20984;43.508;1.504;2022-09-09T08:03:51;11.85;;;3.53;;
34765;SDS011;20984;43.508;1.504;2022-09-09T08:06:20;3.70;;;2.40;;
34765;SDS011;20984;43.508;1.504;2022-09-09T08:08:49;7.25;;;2.90;;
34765;SDS011;20984;43.508;1.504;2022-09-09T08:11:16;6.40;;;2.55;;
34765;SDS011;20984;43.508;1.504;2022-09-09T08:13:42;7.13;;;2.25;;
34765;SDS011;20984;43.508;1.504;2022-09-09T08:16:14;4.13;;;2.53;;
34765;SDS011;20984;43.508;1.504;2022-09-09T08:18:42;4.20;;;2.28;;
34765;SDS011;20984;43.508;1.504;2022-09-09T08:23:37;4.80;;;2.33;;
34765;SDS011;20984;43.508;1.504;2022-09-09T08:26:07;3.55;;;2.20;;
34765;SDS011;20984;43.508;1.504;2022-09-09T08:28:39;3.58;;;2.58;;
34765;SDS011;20984;43.508;1.504;2022-09-09T08:31:09;6.47;;;2.42;;
34765;SDS011;20984;43.508;1.504;2022-09-09T08:33:38;5.95;;;2.60;;
34765;SDS011;20984;43.508;1.504;2022-09-09T08:36:06;3.55;;;2.05;;
34765;SDS011;20984;43.508;1.504;2022-09-09T08:38:34;4.65;;;2.15;;
34765;SDS011;20984;43.508;1.504;2022-09-09T08:41:04;5.00;;;2.42;;
34765;SDS011;20984;43.508;1.504;2022-09-09T08:43:58;7.78;;;2.40;;
34765;SDS011;20984;43.508;1.504;2022-09-09T08:46:42;5.32;;;2.08;;
34765;SDS011;20984;43.508;1.504;2022-09-09T08:52:16;10.87;;;3.03;;
34765;SDS011;20984;43.508;1.504;2022-09-09T08:55:05;4.78;;;2.47;;
34765;SDS011;20984;43.508;1.504;2022-09-09T08:57:59;5.88;;;2.60;;
34765;SDS011;20984;43.508;1.504;2022-09-09T09:03:29;5.95;;;2.08;;
34765;SDS011;20984;43.508;1.504;2022-09-09T09:11:58;5.28;;;2.13;;
34765;SDS011;20984;43.508;1.504;2022-09-09T09:14:27;4.13;;;2.05;;
34765;SDS011;20984;43.508;1.504;2022-09-09T09:16:56;7.20;;;1.48;;
34765;SDS011;20984;43.508;1.504;2022-09-09T09:19:25;7.90;;;1.92;;
34765;SDS011;20984;43.508;1.504;2022-09-09T09:30:15;4.75;;;2.28;;
34765;SDS011;20984;43.508;1.504;2022-09-09T09:32:54;5.25;;;2.30;;
34765;SDS011;20984;43.508;1.504;2022-09-09T09:35:25;5.60;;;2.22;;
34765;SDS011;20984;43.508;1.504;2022-09-09T09:37:51;7.25;;;2.17;;
34765;SDS011;20984;43.508;1.504;2022-09-09T09:40:19;4.13;;;2.17;;
34765;SDS011;20984;43.508;1.504;2022-09-09T09:42:53;3.08;;;2.10;;
34765;SDS011;20984;43.508;1.504;2022-09-09T09:48:10;6.25;;;2.28;;
34765;SDS011;20984;43.508;1.504;2022-09-09T09:50:51;7.55;;;2.65;;
34765;SDS011;20984;43.508;1.504;2022-09-09T09:53:26;4.20;;;2.50;;
34765;SDS011;20984;43.508;1.504;2022-09-09T09:55:55;5.65;;;2.72;;
34765;SDS011;20984;43.508;1.504;2022-09-09T09:58:30;4.85;;;2.35;;
34765;SDS011;20984;43.508;1.504;2022-09-09T10:01:00;6.75;;;2.72;;
34765;SDS011;20984;43.508;1.504;2022-09-09T10:03:31;9.70;;;3.40;;
34765;SDS011;20984;43.508;1.504;2022-09-09T10:06:02;7.97;;;2.78;;
34765;SDS011;20984;43.508;1.504;2022-09-09T10:08:29;7.22;;;3.50;;
34765;SDS011;20984;43.508;1.504;2022-09-09T10:17:02;5.93;;;3.40;;
34765;SDS011;20984;43.508;1.504;2022-09-09T10:19:38;7.32;;;2.90;;
34765;SDS011;20984;43.508;1.504;2022-09-09T10:24:56;3.90;;;2.80;;
34765;SDS011;20984;43.508;1.504;2022-09-09T10:27:54;10.80;;;3.47;;
34765;SDS011;20984;43.508;1.504;2022-09-09T10:33:49;5.20;;;3.10;;
34765;SDS011;20984;43.508;1.504;2022-09-09T10:36:32;4.30;;;2.75;;
34765;SDS011;20984;43.508;1.504;2022-09-09T10:39:03;6.88;;;3.63;;
34765;SDS011;20984;43.508;1.504;2022-09-09T10:44:27;4.93;;;2.65;;
34765;SDS011;20984;43.508;1.504;2022-09-09T10:55:27;3.53;;;2.45;;
34765;SDS011;20984;43.508;1.504;2022-09-09T10:58:01;4.32;;;2.85;;
34765;SDS011;20984;43.508;1.504;2022-09-09T11:00:48;5.78;;;2.70;;
34765;SDS011;20984;43.508;1.504;2022-09-09T11:03:23;5.63;;;2.63;;
34765;SDS011;20984;43.508;1.504;2022-09-09T11:05:53;7.35;;;2.75;;
34765;SDS011;20984;43.508;1.504;2022-09-09T11:08:25;4.28;;;3.05;;
34765;SDS011;20984;43.508;1.504;2022-09-09T11:30:26;5.18;;;2.75;;
34765;SDS011;20984;43.508;1.504;2022-09-09T11:41:22;4.97;;;2.90;;
34765;SDS011;20984;43.508;1.504;2022-09-09T11:43:51;4.40;;;2.55;;
34765;SDS011;20984;43.508;1.504;2022-09-09T11:46:19;4.25;;;2.15;;
34765;SDS011;20984;43.508;1.504;2022-09-09T11:48:58;6.93;;;2.53;;
34765;SDS011;20984;43.508;1.504;2022-09-09T11:51:29;3.58;;;1.95;;
34765;SDS011;20984;43.508;1.504;2022-09-09T11:54:00;6.10;;;2.10;;
34765;SDS011;20984;43.508;1.504;2022-09-09T11:56:30;4.88;;;2.17;;
34765;SDS011;20984;43.508;1.504;2022-09-09T11:59:00;5.07;;;2.28;;
34765;SDS011;20984;43.508;1.504;2022-09-09T12:01:29;8.38;;;2.17;;
34765;SDS011;20984;43.508;1.504;2022-09-09T12:04:01;5.03;;;2.10;;
34765;SDS011;20984;43.508;1.504;2022-09-09T12:17:25;7.18;;;2.78;;
34765;SDS011;20984;43.508;1.504;2022-09-09T12:28:17;7.45;;;2.03;;
34765;SDS011;20984;43.508;1.504;2022-09-09T12:33:34;8.07;;;2.15;;
34765;SDS011;20984;43.508;1.504;2022-09-09T12:36:02;4.90;;;1.83;;
34765;SDS011;20984;43.508;1.504;2022-09-09T12:38:34;8.30;;;2.03;;
34765;SDS011;20984;43.508;1.504;2022-09-09T12:41:04;8.00;;;2.05;;
34765;SDS011;20984;43.508;1.504;2022-09-09T12:43:31;5.18;;;1.70;;
34765;SDS011;20984;43.508;1.504;2022-09-09T12:46:03;4.05;;;1.90;;
34765;SDS011;20984;43.508;1.504;2022-09-09T12:48:40;8.02;;;3.00;;
34765;SDS011;20984;43.508;1.504;2022-09-09T12:51:43;5.63;;;2.25;;
34765;SDS011;20984;43.508;1.504;2022-09-09T12:54:03;4.00;;;1.80;;
34765;SDS011;20984;43.508;1.504;2022-09-09T12:56:30;5.53;;;1.83;;
34765;SDS011;20984;43.508;1.504;2022-09-09T12:58:57;5.90;;;2.00;;
34765;SDS011;20984;43.508;1.504;2022-09-09T13:01:25;9.13;;;1.98;;
34765;SDS011;20984;43.508;1.504;2022-09-09T13:03:52;2.72;;;1.20;;
34765;SDS011;20984;43.508;1.504;2022-09-09T13:06:23;6.90;;;1.83;;
34765;SDS011;20984;43.508;1.504;2022-09-09T13:08:51;5.50;;;1.80;;
34765;SDS011;20984;43.508;1.504;2022-09-09T13:11:20;8.13;;;2.50;;
34765;SDS011;20984;43.508;1.504;2022-09-09T13:13:54;4.03;;;1.95;;
34765;SDS011;20984;43.508;1.504;2022-09-09T13:16:25;6.15;;;2.05;;
34765;SDS011;20984;43.508;1.504;2022-09-09T13:19:17;5.25;;;1.90;;
34765;SDS011;20984;43.508;1.504;2022-09-09T13:21:43;6.03;;;1.65;;
34765;SDS011;20984;43.508;1.504;2022-09-09T13:26:59;5.45;;;1.80;;
34765;SDS011;20984;43.508;1.504;2022-09-09T13:29:30;6.93;;;2.13;;
34765;SDS011;20984;43.508;1.504;2022-09-09T13:32:16;6.70;;;1.40;;
34765;SDS011;20984;43.508;1.504;2022-09-09T13:40:02;5.53;;;1.73;;
34765;SDS011;20984;43.508;1.504;2022-09-09T13:42:31;13.82;;;1.92;;
34765;SDS011;20984;43.508;1.504;2022-09-09T13:45:00;5.00;;;1.87;;
34765;SDS011;20984;43.508;1.504;2022-09-09T13:47:33;5.82;;;2.03;;
34765;SDS011;20984;43.508;1.504;2022-09-09T13:50:17;5.55;;;1.92;;
34765;SDS011;20984;43.508;1.504;2022-09-09T13:52:45;6.80;;;1.92;;
34765;SDS011;20984;43.508;1.504;2022-09-09T13:55:12;5.07;;;1.83;;
34765;SDS011;20984;43.508;1.504;2022-09-09T13:57:38;3.13;;;1.35;;
34765;SDS011;20984;43.508;1.504;2022-09-09T14:00:05;3.83;;;1.83;;
34765;SDS011;20984;43.508;1.504;2022-09-09T14:02:33;7.57;;;1.60;;
34765;SDS011;20984;43.508;1.504;2022-09-09T14:04:59;7.90;;;2.00;;
34765;SDS011;20984;43.508;1.504;2022-09-09T14:07:25;4.68;;;1.73;;
34765;SDS011;20984;43.508;1.504;2022-09-09T14:09:51;6.30;;;1.92;;
34765;SDS011;20984;43.508;1.504;2022-09-09T14:12:17;4.00;;;1.40;;
34765;SDS011;20984;43.508;1.504;2022-09-09T14:14:43;4.90;;;2.33;;
34765;SDS011;20984;43.508;1.504;2022-09-09T14:17:09;5.78;;;2.08;;
34765;SDS011;20984;43.508;1.504;2022-09-09T14:19:35;6.65;;;1.50;;
34765;SDS011;20984;43.508;1.504;2022-09-09T14:22:02;8.88;;;2.03;;
34765;SDS011;20984;43.508;1.504;2022-09-09T14:24:28;7.03;;;2.15;;
34765;SDS011;20984;43.508;1.504;2022-09-09T14:26:54;6.78;;;2.38;;
34765;SDS011;20984;43.508;1.504;2022-09-09T14:29:22;7.75;;;2.05;;
34765;SDS011;20984;43.508;1.504;2022-09-09T14:31:50;10.32;;;2.95;;
34765;SDS011;20984;43.508;1.504;2022-09-09T14:34:16;9.20;;;4.60;;
34765;SDS011;20984;43.508;1.504;2022-09-09T14:36:42;10.38;;;3.50;;
34765;SDS011;20984;43.508;1.504;2022-09-09T14:39:09;7.45;;;2.08;;
34765;SDS011;20984;43.508;1.504;2022-09-09T14:41:35;7.05;;;1.80;;
34765;SDS011;20984;43.508;1.504;2022-09-09T14:44:01;5.47;;;1.48;;
34765;SDS011;20984;43.508;1.504;2022-09-09T14:46:27;6.03;;;2.58;;
34765;SDS011;20984;43.508;1.504;2022-09-09T14:48:53;7.20;;;2.92;;
34765;SDS011;20984;43.508;1.504;2022-09-09T14:51:20;11.65;;;2.35;;
34765;SDS011;20984;43.508;1.504;2022-09-09T14:53:47;4.38;;;2.08;;
34765;SDS011;20984;43.508;1.504;2022-09-09T14:56:16;4.50;;;1.73;;
34765;SDS011;20984;43.508;1.504;2022-09-09T14:58:44;6.68;;;1.40;;
34765;SDS011;20984;43.508;1.504;2022-09-09T15:01:12;5.63;;;1.60;;
34765;SDS011;20984;43.508;1.504;2022-09-09T15:03:42;12.80;;;2.47;;
34765;SDS011;20984;43.508;1.504;2022-09-09T15:06:13;6.13;;;1.95;;
34765;SDS011;20984;43.508;1.504;2022-09-09T15:08:40;5.57;;;2.00;;
34765;SDS011;20984;43.508;1.504;2022-09-09T15:11:08;8.25;;;2.50;;
34765;SDS011;20984;43.508;1.504;2022-09-09T15:13:38;5.70;;;1.60;;
34765;SDS011;20984;43.508;1.504;2022-09-09T15:16:06;5.03;;;1.30;;
34765;SDS011;20984;43.508;1.504;2022-09-09T15:18:33;4.65;;;1.42;;
34765;SDS011;20984;43.508;1.504;2022-09-09T15:21:01;5.07;;;1.42;;
34765;SDS011;20984;43.508;1.504;2022-09-09T15:23:34;6.15;;;1.40;;
34765;SDS011;20984;43.508;1.504;2022-09-09T15:26:00;5.82;;;1.75;;
34765;SDS011;20984;43.508;1.504;2022-09-09T15:28:27;5.15;;;1.20;;
34765;SDS011;20984;43.508;1.504;2022-09-09T15:30:53;5.07;;;1.02;;
34765;SDS011;20984;43.508;1.504;2022-09-09T15:33:21;3.63;;;1.15;;
34765;SDS011;20984;43.508;1.504;2022-09-09T15:35:48;6.35;;;1.10;;
34765;SDS011;20984;43.508;1.504;2022-09-09T15:38:15;5.95;;;1.52;;
34765;SDS011;20984;43.508;1.504;2022-09-09T15:40:42;6.40;;;1.58;;
34765;SDS011;20984;43.508;1.504;2022-09-09T15:43:11;5.80;;;1.88;;
34765;SDS011;20984;43.508;1.504;2022-09-09T15:45:39;6.95;;;1.55;;
34765;SDS011;20984;43.508;1.504;2022-09-09T15:48:04;4.65;;;0.98;;
34765;SDS011;20984;43.508;1.504;2022-09-09T15:50:30;5.78;;;1.48;;
34765;SDS011;20984;43.508;1.504;2022-09-09T15:52:57;6.20;;;1.98;;
34765;SDS011;20984;43.508;1.504;2022-09-09T15:55:24;6.68;;;2.30;;
34765;SDS011;20984;43.508;1.504;2022-09-09T15:57:50;5.95;;;2.15;;
34765;SDS011;20984;43.508;1.504;2022-09-09T16:00:17;4.97;;;1.35;;
34765;SDS011;20984;43.508;1.504;2022-09-09T16:02:44;4.97;;;1.38;;
34765;SDS011;20984;43.508;1.504;2022-09-09T16:05:12;8.93;;;1.88;;
34765;SDS011;20984;43.508;1.504;2022-09-09T16:07:38;9.68;;;2.00;;
34765;SDS011;20984;43.508;1.504;2022-09-09T16:10:04;6.88;;;1.45;;
34765;SDS011;20984;43.508;1.504;2022-09-09T16:12:33;6.35;;;1.58;;
34765;SDS011;20984;43.508;1.504;2022-09-09T16:15:01;10.68;;;2.33;;
34765;SDS011;20984;43.508;1.504;2022-09-09T16:17:30;5.38;;;2.00;;
34765;SDS011;20984;43.508;1.504;2022-09-09T16:20:02;6.75;;;1.88;;
34765;SDS011;20984;43.508;1.504;2022-09-09T16:22:30;7.35;;;2.10;;
34765;SDS011;20984;43.508;1.504;2022-09-09T16:24:56;4.15;;;1.77;;
34765;SDS011;20984;43.508;1.504;2022-09-09T16:27:22;7.38;;;2.05;;
34765;SDS011;20984;43.508;1.504;2022-09-09T16:29:48;7.93;;;1.75;;
34765;SDS011;20984;43.508;1.504;2022-09-09T16:32:14;6.07;;;1.92;;
34765;SDS011;20984;43.508;1.504;2022-09-09T16:34:40;4.80;;;1.58;;
34765;SDS011;20984;43.508;1.504;2022-09-09T16:37:07;5.20;;;1.40;;
34765;SDS011;20984;43.508;1.504;2022-09-09T16:39:33;4.68;;;1.33;;
34765;SDS011;20984;43.508;1.504;2022-09-09T16:42:00;4.05;;;1.30;;
34765;SDS011;20984;43.508;1.504;2022-09-09T16:44:28;5.28;;;1.63;;
34765;SDS011;20984;43.508;1.504;2022-09-09T16:46:54;4.45;;;1.67;;
34765;SDS011;20984;43.508;1.504;2022-09-09T16:49:20;5.05;;;1.40;;
34765;SDS011;20984;43.508;1.504;2022-09-09T16:51:46;8.65;;;1.63;;
34765;SDS011;20984;43.508;1.504;2022-09-09T16:54:14;11.40;;;1.95;;
34765;SDS011;20984;43.508;1.504;2022-09-09T16:56:42;7.47;;;2.38;;
34765;SDS011;20984;43.508;1.504;2022-09-09T16:59:11;5.93;;;1.63;;
34765;SDS011;20984;43.508;1.504;2022-09-09T17:01:40;4.07;;;1.50;;
34765;SDS011;20984;43.508;1.504;2022-09-09T17:04:17;3.47;;;1.60;;
34765;SDS011;20984;43.508;1.504;2022-09-09T17:06:49;13.23;;;1.75;;
34765;SDS011;20984;43.508;1.504;2022-09-09T17:09:16;11.77;;;1.90;;
34765;SDS011;20984;43.508;1.504;2022-09-09T17:11:43;5.55;;;1.65;;
34765;SDS011;20984;43.508;1.504;2022-09-09T17:14:11;7.68;;;1.88;;
34765;SDS011;20984;43.508;1.504;2022-09-09T17:16:39;6.72;;;1.83;;
34765;SDS011;20984;43.508;1.504;2022-09-09T17:19:06;10.65;;;1.95;;
34765;SDS011;20984;43.508;1.504;2022-09-09T17:21:34;5.97;;;2.08;;
34765;SDS011;20984;43.508;1.504;2022-09-09T17:24:01;4.32;;;1.73;;
34765;SDS011;20984;43.508;1.504;2022-09-09T17:26:28;4.95;;;1.73;;
34765;SDS011;20984;43.508;1.504;2022-09-09T17:28:56;7.88;;;2.00;;
34765;SDS011;20984;43.508;1.504;2022-09-09T17:31:26;4.28;;;1.23;;
34765;SDS011;20984;43.508;1.504;2022-09-09T17:33:52;6.10;;;1.65;;
34765;SDS011;20984;43.508;1.504;2022-09-09T17:36:20;7.90;;;1.50;;
34765;SDS011;20984;43.508;1.504;2022-09-09T17:38:47;4.50;;;1.83;;
34765;SDS011;20984;43.508;1.504;2022-09-09T17:41:18;6.95;;;1.95;;
34765;SDS011;20984;43.508;1.504;2022-09-09T17:43:46;12.60;;;1.90;;
34765;SDS011;20984;43.508;1.504;2022-09-09T17:46:15;5.05;;;1.58;;